sensor_id;sensor_type;location;lat;lon;timestamp;P1;durP1;ratioP1;P2;durP2;ratioP2
8399;SDS011;4237;47.030;15.396;2023-11-19T00:01:50;8.93;;;7.70;;
8399;SDS011;4237;47.030;15.396;2023-11-19T00:04:19;10.77;;;8.10;;
8399;SDS011;4237;47.030;15.396;2023-11-19T00:06:47;9.70;;;8.17;;
8399;SDS011;4237;47.030;15.396;2023-11-19T00:09:16;11.63;;;7.83;;
8399;SDS011;4237;47.030;15.396;2023-11-19T00:11:45;8.60;;;7.37;;
8399;SDS011;4237;47.030;15.396;2023-11-19T00:14:14;9.93;;;7.77;;
8399;SDS011;4237;47.030;15.396;2023-11-19T00:16:44;9.70;;;7.67;;
8399;SDS011;4237;47.030;15.396;2023-11-19T00:19:12;9.97;;;8.30;;
8399;SDS011;4237;47.030;15.396;2023-11-19T00:21:41;11.20;;;8.10;;
8399;SDS011;4237;47.030;15.396;2023-11-19T00:24:10;15.23;;;9.63;;
8399;SDS011;4237;47.030;15.396;2023-11-19T00:26:39;16.40;;;10.60;;
8399;SDS011;4237;47.030;15.396;2023-11-19T00:29:08;16.90;;;11.77;;
8399;SDS011;4237;47.030;15.396;2023-11-19T00:31:38;16.40;;;10.93;;
8399;SDS011;4237;47.030;15.396;2023-11-19T00:34:06;12.67;;;9.43;;
8399;SDS011;4237;47.030;15.396;2023-11-19T00:36:35;10.07;;;8.70;;
8399;SDS011;4237;47.030;15.396;2023-11-19T00:39:03;11.53;;;8.90;;
8399;SDS011;4237;47.030;15.396;2023-11-19T00:41:33;9.80;;;7.47;;
8399;SDS011;4237;47.030;15.396;2023-11-19T00:44:01;10.37;;;7.73;;
8399;SDS011;4237;47.030;15.396;2023-11-19T00:46:30;10.60;;;7.20;;
8399;SDS011;4237;47.030;15.396;2023-11-19T00:48:59;8.33;;;7.40;;
8399;SDS011;4237;47.030;15.396;2023-11-19T00:51:28;8.43;;;7.37;;
8399;SDS011;4237;47.030;15.396;2023-11-19T00:53:59;7.97;;;7.17;;
8399;SDS011;4237;47.030;15.396;2023-11-19T00:56:27;8.33;;;7.20;;
8399;SDS011;4237;47.030;15.396;2023-11-19T00:58:56;7.13;;;6.43;;
8399;SDS011;4237;47.030;15.396;2023-11-19T01:01:26;7.87;;;7.07;;
8399;SDS011;4237;47.030;15.396;2023-11-19T01:03:55;9.30;;;7.70;;
8399;SDS011;4237;47.030;15.396;2023-11-19T01:06:28;8.83;;;6.50;;
8399;SDS011;4237;47.030;15.396;2023-11-19T01:08:57;7.70;;;6.90;;
8399;SDS011;4237;47.030;15.396;2023-11-19T01:11:27;7.57;;;6.50;;
8399;SDS011;4237;47.030;15.396;2023-11-19T01:13:56;8.00;;;6.77;;
8399;SDS011;4237;47.030;15.396;2023-11-19T01:16:25;7.63;;;6.63;;
8399;SDS011;4237;47.030;15.396;2023-11-19T01:18:55;8.13;;;7.03;;
8399;SDS011;4237;47.030;15.396;2023-11-19T01:21:23;8.60;;;7.33;;
8399;SDS011;4237;47.030;15.396;2023-11-19T01:23:53;10.17;;;7.80;;
8399;SDS011;4237;47.030;15.396;2023-11-19T01:26:21;8.40;;;7.37;;
8399;SDS011;4237;47.030;15.396;2023-11-19T01:28:50;9.10;;;7.70;;
8399;SDS011;4237;47.030;15.396;2023-11-19T01:31:19;8.90;;;6.80;;
8399;SDS011;4237;47.030;15.396;2023-11-19T01:33:48;11.90;;;8.60;;
8399;SDS011;4237;47.030;15.396;2023-11-19T01:36:17;12.40;;;8.87;;
8399;SDS011;4237;47.030;15.396;2023-11-19T01:38:45;11.07;;;8.63;;
8399;SDS011;4237;47.030;15.396;2023-11-19T01:41:14;12.90;;;9.17;;
8399;SDS011;4237;47.030;15.396;2023-11-19T01:43:43;12.87;;;9.10;;
8399;SDS011;4237;47.030;15.396;2023-11-19T01:46:13;11.37;;;8.37;;
8399;SDS011;4237;47.030;15.396;2023-11-19T01:48:47;11.80;;;7.93;;
8399;SDS011;4237;47.030;15.396;2023-11-19T01:51:12;8.37;;;7.03;;
8399;SDS011;4237;47.030;15.396;2023-11-19T01:53:43;11.23;;;7.80;;
8399;SDS011;4237;47.030;15.396;2023-11-19T01:56:13;9.30;;;6.90;;
8399;SDS011;4237;47.030;15.396;2023-11-19T01:58:43;8.10;;;7.10;;
8399;SDS011;4237;47.030;15.396;2023-11-19T02:01:13;7.83;;;6.97;;
8399;SDS011;4237;47.030;15.396;2023-11-19T02:03:42;6.93;;;6.23;;
8399;SDS011;4237;47.030;15.396;2023-11-19T02:06:11;7.73;;;6.93;;
8399;SDS011;4237;47.030;15.396;2023-11-19T02:08:40;8.80;;;6.30;;
8399;SDS011;4237;47.030;15.396;2023-11-19T02:11:09;8.47;;;6.73;;
8399;SDS011;4237;47.030;15.396;2023-11-19T02:13:39;7.20;;;6.50;;
8399;SDS011;4237;47.030;15.396;2023-11-19T02:16:08;7.70;;;6.87;;
8399;SDS011;4237;47.030;15.396;2023-11-19T02:18:38;7.70;;;6.83;;
8399;SDS011;4237;47.030;15.396;2023-11-19T02:21:07;9.80;;;7.13;;
8399;SDS011;4237;47.030;15.396;2023-11-19T02:23:37;7.37;;;6.33;;
8399;SDS011;4237;47.030;15.396;2023-11-19T02:26:13;6.93;;;6.07;;
8399;SDS011;4237;47.030;15.396;2023-11-19T02:28:52;7.83;;;6.13;;
8399;SDS011;4237;47.030;15.396;2023-11-19T02:31:21;6.67;;;5.97;;
8399;SDS011;4237;47.030;15.396;2023-11-19T02:33:49;8.63;;;6.63;;
8399;SDS011;4237;47.030;15.396;2023-11-19T02:36:18;7.77;;;6.40;;
8399;SDS011;4237;47.030;15.396;2023-11-19T02:38:48;7.40;;;6.60;;
8399;SDS011;4237;47.030;15.396;2023-11-19T02:41:17;7.97;;;6.77;;
8399;SDS011;4237;47.030;15.396;2023-11-19T02:43:45;7.77;;;6.47;;
8399;SDS011;4237;47.030;15.396;2023-11-19T02:46:15;7.13;;;6.40;;
8399;SDS011;4237;47.030;15.396;2023-11-19T02:48:45;7.30;;;6.40;;
8399;SDS011;4237;47.030;15.396;2023-11-19T02:51:14;6.60;;;5.80;;
8399;SDS011;4237;47.030;15.396;2023-11-19T02:53:43;7.83;;;6.20;;
8399;SDS011;4237;47.030;15.396;2023-11-19T02:56:13;6.77;;;6.07;;
8399;SDS011;4237;47.030;15.396;2023-11-19T02:58:44;7.53;;;6.33;;
8399;SDS011;4237;47.030;15.396;2023-11-19T03:01:13;6.93;;;6.23;;
8399;SDS011;4237;47.030;15.396;2023-11-19T03:03:43;7.33;;;6.10;;
8399;SDS011;4237;47.030;15.396;2023-11-19T03:06:13;6.83;;;6.03;;
8399;SDS011;4237;47.030;15.396;2023-11-19T03:08:42;7.13;;;5.67;;
8399;SDS011;4237;47.030;15.396;2023-11-19T03:11:11;9.00;;;6.27;;
8399;SDS011;4237;47.030;15.396;2023-11-19T03:13:40;8.13;;;6.70;;
8399;SDS011;4237;47.030;15.396;2023-11-19T03:16:08;7.50;;;6.50;;
8399;SDS011;4237;47.030;15.396;2023-11-19T03:18:38;9.03;;;6.87;;
8399;SDS011;4237;47.030;15.396;2023-11-19T03:21:07;7.57;;;6.70;;
8399;SDS011;4237;47.030;15.396;2023-11-19T03:23:36;8.10;;;6.33;;
8399;SDS011;4237;47.030;15.396;2023-11-19T03:26:06;7.40;;;6.70;;
8399;SDS011;4237;47.030;15.396;2023-11-19T03:28:36;7.30;;;6.60;;
8399;SDS011;4237;47.030;15.396;2023-11-19T03:31:25;7.80;;;6.73;;
8399;SDS011;4237;47.030;15.396;2023-11-19T03:33:54;7.83;;;7.00;;
8399;SDS011;4237;47.030;15.396;2023-11-19T03:36:22;7.53;;;6.73;;
8399;SDS011;4237;47.030;15.396;2023-11-19T03:38:51;8.67;;;7.20;;
8399;SDS011;4237;47.030;15.396;2023-11-19T03:41:19;7.77;;;6.73;;
8399;SDS011;4237;47.030;15.396;2023-11-19T03:43:48;8.50;;;7.37;;
8399;SDS011;4237;47.030;15.396;2023-11-19T03:46:20;7.77;;;7.03;;
8399;SDS011;4237;47.030;15.396;2023-11-19T03:48:49;8.90;;;7.27;;
8399;SDS011;4237;47.030;15.396;2023-11-19T03:51:18;7.73;;;6.90;;
8399;SDS011;4237;47.030;15.396;2023-11-19T03:53:46;8.50;;;7.10;;
8399;SDS011;4237;47.030;15.396;2023-11-19T03:56:15;8.93;;;6.77;;
8399;SDS011;4237;47.030;15.396;2023-11-19T03:58:44;9.53;;;7.10;;
8399;SDS011;4237;47.030;15.396;2023-11-19T04:01:12;7.70;;;6.83;;
8399;SDS011;4237;47.030;15.396;2023-11-19T04:03:41;8.43;;;7.17;;
8399;SDS011;4237;47.030;15.396;2023-11-19T04:06:10;7.33;;;6.57;;
8399;SDS011;4237;47.030;15.396;2023-11-19T04:08:38;9.67;;;7.00;;
8399;SDS011;4237;47.030;15.396;2023-11-19T04:11:08;8.13;;;6.80;;
8399;SDS011;4237;47.030;15.396;2023-11-19T04:13:36;7.37;;;6.67;;
8399;SDS011;4237;47.030;15.396;2023-11-19T04:16:05;8.07;;;7.27;;
8399;SDS011;4237;47.030;15.396;2023-11-19T04:18:35;8.47;;;6.97;;
8399;SDS011;4237;47.030;15.396;2023-11-19T04:21:05;8.13;;;7.27;;
8399;SDS011;4237;47.030;15.396;2023-11-19T04:23:34;8.63;;;7.37;;
8399;SDS011;4237;47.030;15.396;2023-11-19T04:26:03;9.10;;;7.60;;
8399;SDS011;4237;47.030;15.396;2023-11-19T04:28:33;7.60;;;6.43;;
8399;SDS011;4237;47.030;15.396;2023-11-19T04:31:02;8.60;;;7.00;;
8399;SDS011;4237;47.030;15.396;2023-11-19T04:33:31;8.13;;;7.10;;
8399;SDS011;4237;47.030;15.396;2023-11-19T04:36:00;8.13;;;6.80;;
8399;SDS011;4237;47.030;15.396;2023-11-19T04:38:29;9.23;;;7.53;;
8399;SDS011;4237;47.030;15.396;2023-11-19T04:40:58;8.40;;;7.27;;
8399;SDS011;4237;47.030;15.396;2023-11-19T04:43:27;7.97;;;7.17;;
8399;SDS011;4237;47.030;15.396;2023-11-19T04:45:55;8.10;;;7.30;;
8399;SDS011;4237;47.030;15.396;2023-11-19T04:48:24;9.57;;;7.30;;
8399;SDS011;4237;47.030;15.396;2023-11-19T04:50:52;8.17;;;7.10;;
8399;SDS011;4237;47.030;15.396;2023-11-19T04:53:21;7.90;;;7.10;;
8399;SDS011;4237;47.030;15.396;2023-11-19T04:55:50;8.50;;;7.60;;
8399;SDS011;4237;47.030;15.396;2023-11-19T04:58:19;8.47;;;7.53;;
8399;SDS011;4237;47.030;15.396;2023-11-19T05:00:47;8.63;;;7.73;;
8399;SDS011;4237;47.030;15.396;2023-11-19T05:03:16;8.37;;;7.57;;
8399;SDS011;4237;47.030;15.396;2023-11-19T05:05:44;8.87;;;7.97;;
8399;SDS011;4237;47.030;15.396;2023-11-19T05:08:13;9.00;;;7.53;;
8399;SDS011;4237;47.030;15.396;2023-11-19T05:10:41;8.80;;;7.73;;
8399;SDS011;4237;47.030;15.396;2023-11-19T05:13:11;9.97;;;8.33;;
8399;SDS011;4237;47.030;15.396;2023-11-19T05:15:39;9.10;;;7.63;;
8399;SDS011;4237;47.030;15.396;2023-11-19T05:18:08;8.40;;;7.53;;
8399;SDS011;4237;47.030;15.396;2023-11-19T05:20:37;8.30;;;7.27;;
8399;SDS011;4237;47.030;15.396;2023-11-19T05:23:05;8.03;;;7.23;;
8399;SDS011;4237;47.030;15.396;2023-11-19T05:25:34;9.23;;;6.87;;
8399;SDS011;4237;47.030;15.396;2023-11-19T05:28:04;8.33;;;7.10;;
8399;SDS011;4237;47.030;15.396;2023-11-19T05:30:32;7.73;;;6.63;;
8399;SDS011;4237;47.030;15.396;2023-11-19T05:33:01;8.77;;;7.10;;
8399;SDS011;4237;47.030;15.396;2023-11-19T05:35:30;9.10;;;7.20;;
8399;SDS011;4237;47.030;15.396;2023-11-19T05:37:58;8.83;;;7.30;;
8399;SDS011;4237;47.030;15.396;2023-11-19T05:40:28;10.23;;;7.93;;
8399;SDS011;4237;47.030;15.396;2023-11-19T05:42:57;9.80;;;7.13;;
8399;SDS011;4237;47.030;15.396;2023-11-19T05:45:26;9.37;;;6.83;;
8399;SDS011;4237;47.030;15.396;2023-11-19T05:47:55;8.63;;;6.53;;
8399;SDS011;4237;47.030;15.396;2023-11-19T05:50:24;8.37;;;6.73;;
8399;SDS011;4237;47.030;15.396;2023-11-19T05:52:52;8.90;;;6.33;;
8399;SDS011;4237;47.030;15.396;2023-11-19T05:55:21;8.37;;;6.93;;
8399;SDS011;4237;47.030;15.396;2023-11-19T05:57:51;7.67;;;6.80;;
8399;SDS011;4237;47.030;15.396;2023-11-19T06:00:20;7.63;;;6.60;;
8399;SDS011;4237;47.030;15.396;2023-11-19T06:02:48;8.47;;;7.17;;
8399;SDS011;4237;47.030;15.396;2023-11-19T06:05:17;7.93;;;7.10;;
8399;SDS011;4237;47.030;15.396;2023-11-19T06:07:46;8.17;;;7.20;;
8399;SDS011;4237;47.030;15.396;2023-11-19T06:10:14;7.77;;;6.53;;
8399;SDS011;4237;47.030;15.396;2023-11-19T06:12:44;7.90;;;7.03;;
8399;SDS011;4237;47.030;15.396;2023-11-19T06:15:14;8.17;;;7.23;;
8399;SDS011;4237;47.030;15.396;2023-11-19T06:17:43;7.70;;;6.60;;
8399;SDS011;4237;47.030;15.396;2023-11-19T06:20:13;8.10;;;7.30;;
8399;SDS011;4237;47.030;15.396;2023-11-19T06:22:41;8.73;;;7.70;;
8399;SDS011;4237;47.030;15.396;2023-11-19T06:25:10;9.00;;;7.17;;
8399;SDS011;4237;47.030;15.396;2023-11-19T06:27:42;9.13;;;7.47;;
8399;SDS011;4237;47.030;15.396;2023-11-19T06:30:11;8.70;;;7.23;;
8399;SDS011;4237;47.030;15.396;2023-11-19T06:32:40;7.60;;;6.47;;
8399;SDS011;4237;47.030;15.396;2023-11-19T06:35:08;7.97;;;6.43;;
8399;SDS011;4237;47.030;15.396;2023-11-19T06:37:40;7.60;;;6.37;;
8399;SDS011;4237;47.030;15.396;2023-11-19T06:40:10;8.50;;;7.60;;
8399;SDS011;4237;47.030;15.396;2023-11-19T06:42:39;9.03;;;8.10;;
8399;SDS011;4237;47.030;15.396;2023-11-19T06:45:08;12.23;;;7.83;;
8399;SDS011;4237;47.030;15.396;2023-11-19T06:47:37;7.67;;;6.83;;
8399;SDS011;4237;47.030;15.396;2023-11-19T06:50:06;7.50;;;6.70;;
8399;SDS011;4237;47.030;15.396;2023-11-19T06:52:36;8.40;;;7.27;;
8399;SDS011;4237;47.030;15.396;2023-11-19T06:55:05;8.77;;;7.97;;
8399;SDS011;4237;47.030;15.396;2023-11-19T06:57:34;8.57;;;7.67;;
8399;SDS011;4237;47.030;15.396;2023-11-19T07:00:04;10.33;;;7.10;;
8399;SDS011;4237;47.030;15.396;2023-11-19T07:02:35;9.30;;;6.67;;
8399;SDS011;4237;47.030;15.396;2023-11-19T07:05:03;8.67;;;7.07;;
8399;SDS011;4237;47.030;15.396;2023-11-19T07:07:33;8.07;;;6.70;;
8399;SDS011;4237;47.030;15.396;2023-11-19T07:10:02;7.47;;;6.40;;
8399;SDS011;4237;47.030;15.396;2023-11-19T07:12:33;6.70;;;6.03;;
8399;SDS011;4237;47.030;15.396;2023-11-19T07:15:03;6.83;;;5.83;;
8399;SDS011;4237;47.030;15.396;2023-11-19T07:17:32;7.10;;;6.40;;
8399;SDS011;4237;47.030;15.396;2023-11-19T07:20:02;6.30;;;5.67;;
8399;SDS011;4237;47.030;15.396;2023-11-19T07:22:31;6.97;;;6.27;;
8399;SDS011;4237;47.030;15.396;2023-11-19T07:24:59;6.47;;;5.80;;
8399;SDS011;4237;47.030;15.396;2023-11-19T07:27:28;7.67;;;6.87;;
8399;SDS011;4237;47.030;15.396;2023-11-19T07:29:57;6.20;;;5.60;;
8399;SDS011;4237;47.030;15.396;2023-11-19T07:32:25;6.73;;;5.73;;
8399;SDS011;4237;47.030;15.396;2023-11-19T07:34:54;6.30;;;5.70;;
8399;SDS011;4237;47.030;15.396;2023-11-19T07:37:23;9.17;;;6.73;;
8399;SDS011;4237;47.030;15.396;2023-11-19T07:39:51;9.47;;;6.90;;
8399;SDS011;4237;47.030;15.396;2023-11-19T07:42:20;8.27;;;7.13;;
8399;SDS011;4237;47.030;15.396;2023-11-19T07:44:50;9.73;;;7.40;;
8399;SDS011;4237;47.030;15.396;2023-11-19T07:47:20;10.60;;;8.17;;
8399;SDS011;4237;47.030;15.396;2023-11-19T07:49:50;10.80;;;8.07;;
8399;SDS011;4237;47.030;15.396;2023-11-19T07:52:19;9.50;;;8.27;;
8399;SDS011;4237;47.030;15.396;2023-11-19T07:54:48;10.97;;;8.57;;
8399;SDS011;4237;47.030;15.396;2023-11-19T07:57:16;9.90;;;7.90;;
8399;SDS011;4237;47.030;15.396;2023-11-19T07:59:45;9.47;;;7.93;;
8399;SDS011;4237;47.030;15.396;2023-11-19T08:02:14;9.33;;;7.57;;
8399;SDS011;4237;47.030;15.396;2023-11-19T08:04:43;8.13;;;7.33;;
8399;SDS011;4237;47.030;15.396;2023-11-19T08:07:12;8.07;;;7.13;;
8399;SDS011;4237;47.030;15.396;2023-11-19T08:09:41;9.20;;;7.67;;
8399;SDS011;4237;47.030;15.396;2023-11-19T08:12:10;9.07;;;7.40;;
8399;SDS011;4237;47.030;15.396;2023-11-19T08:14:40;9.73;;;7.33;;
8399;SDS011;4237;47.030;15.396;2023-11-19T08:17:09;7.77;;;6.97;;
8399;SDS011;4237;47.030;15.396;2023-11-19T08:19:38;8.00;;;6.67;;
8399;SDS011;4237;47.030;15.396;2023-11-19T08:22:06;9.10;;;8.07;;
8399;SDS011;4237;47.030;15.396;2023-11-19T08:24:36;9.90;;;8.10;;
8399;SDS011;4237;47.030;15.396;2023-11-19T08:27:04;7.80;;;6.90;;
8399;SDS011;4237;47.030;15.396;2023-11-19T08:29:33;7.93;;;7.13;;
8399;SDS011;4237;47.030;15.396;2023-11-19T08:32:02;12.80;;;10.57;;
8399;SDS011;4237;47.030;15.396;2023-11-19T08:34:31;9.83;;;8.60;;
8399;SDS011;4237;47.030;15.396;2023-11-19T08:36:59;7.57;;;6.87;;
8399;SDS011;4237;47.030;15.396;2023-11-19T08:39:28;8.50;;;7.47;;
8399;SDS011;4237;47.030;15.396;2023-11-19T08:41:57;6.87;;;6.27;;
8399;SDS011;4237;47.030;15.396;2023-11-19T08:44:26;7.30;;;6.17;;
8399;SDS011;4237;47.030;15.396;2023-11-19T08:46:54;7.80;;;6.70;;
8399;SDS011;4237;47.030;15.396;2023-11-19T08:49:24;5.37;;;4.10;;
8399;SDS011;4237;47.030;15.396;2023-11-19T08:51:52;4.03;;;3.63;;
8399;SDS011;4237;47.030;15.396;2023-11-19T08:54:21;4.80;;;4.40;;
8399;SDS011;4237;47.030;15.396;2023-11-19T08:56:50;5.27;;;4.67;;
8399;SDS011;4237;47.030;15.396;2023-11-19T08:59:18;5.27;;;4.23;;
8399;SDS011;4237;47.030;15.396;2023-11-19T09:01:47;4.33;;;3.93;;
8399;SDS011;4237;47.030;15.396;2023-11-19T09:04:15;4.00;;;3.70;;
8399;SDS011;4237;47.030;15.396;2023-11-19T09:06:44;4.27;;;3.87;;
8399;SDS011;4237;47.030;15.396;2023-11-19T09:09:13;3.60;;;3.30;;
8399;SDS011;4237;47.030;15.396;2023-11-19T09:11:41;3.80;;;3.50;;
8399;SDS011;4237;47.030;15.396;2023-11-19T09:14:11;5.20;;;4.70;;
8399;SDS011;4237;47.030;15.396;2023-11-19T09:16:39;4.77;;;4.37;;
8399;SDS011;4237;47.030;15.396;2023-11-19T09:19:08;4.10;;;3.70;;
8399;SDS011;4237;47.030;15.396;2023-11-19T09:21:37;3.63;;;3.30;;
8399;SDS011;4237;47.030;15.396;2023-11-19T09:24:06;3.77;;;3.47;;
8399;SDS011;4237;47.030;15.396;2023-11-19T09:26:35;3.77;;;3.40;;
8399;SDS011;4237;47.030;15.396;2023-11-19T09:29:05;4.10;;;3.70;;
8399;SDS011;4237;47.030;15.396;2023-11-19T09:31:34;4.73;;;4.23;;
8399;SDS011;4237;47.030;15.396;2023-11-19T09:34:04;4.77;;;3.87;;
8399;SDS011;4237;47.030;15.396;2023-11-19T09:36:33;5.17;;;3.60;;
8399;SDS011;4237;47.030;15.396;2023-11-19T09:39:02;3.60;;;3.30;;
8399;SDS011;4237;47.030;15.396;2023-11-19T09:41:31;4.13;;;3.73;;
8399;SDS011;4237;47.030;15.396;2023-11-19T09:44:02;3.47;;;3.17;;
8399;SDS011;4237;47.030;15.396;2023-11-19T09:46:30;3.60;;;3.30;;
8399;SDS011;4237;47.030;15.396;2023-11-19T09:49:00;4.30;;;3.90;;
8399;SDS011;4237;47.030;15.396;2023-11-19T09:51:32;4.20;;;3.80;;
8399;SDS011;4237;47.030;15.396;2023-11-19T09:54:00;4.77;;;3.73;;
8399;SDS011;4237;47.030;15.396;2023-11-19T09:56:29;4.10;;;3.80;;
8399;SDS011;4237;47.030;15.396;2023-11-19T09:58:58;4.00;;;3.57;;
8399;SDS011;4237;47.030;15.396;2023-11-19T10:01:27;5.37;;;4.10;;
8399;SDS011;4237;47.030;15.396;2023-11-19T10:03:58;4.93;;;4.47;;
8399;SDS011;4237;47.030;15.396;2023-11-19T10:06:28;4.80;;;4.33;;
8399;SDS011;4237;47.030;15.396;2023-11-19T10:08:57;4.40;;;4.00;;
8399;SDS011;4237;47.030;15.396;2023-11-19T10:11:26;5.63;;;4.90;;
8399;SDS011;4237;47.030;15.396;2023-11-19T10:13:55;5.20;;;4.27;;
8399;SDS011;4237;47.030;15.396;2023-11-19T10:16:28;4.97;;;4.27;;
8399;SDS011;4237;47.030;15.396;2023-11-19T10:19:00;4.60;;;4.20;;
8399;SDS011;4237;47.030;15.396;2023-11-19T10:21:32;4.10;;;3.70;;
8399;SDS011;4237;47.030;15.396;2023-11-19T10:24:01;3.90;;;3.30;;
8399;SDS011;4237;47.030;15.396;2023-11-19T10:26:32;5.80;;;4.50;;
8399;SDS011;4237;47.030;15.396;2023-11-19T10:29:01;5.17;;;4.67;;
8399;SDS011;4237;47.030;15.396;2023-11-19T10:31:30;5.77;;;5.13;;
8399;SDS011;4237;47.030;15.396;2023-11-19T10:33:59;5.33;;;4.27;;
8399;SDS011;4237;47.030;15.396;2023-11-19T10:36:37;4.27;;;3.87;;
8399;SDS011;4237;47.030;15.396;2023-11-19T10:39:10;5.30;;;4.50;;
8399;SDS011;4237;47.030;15.396;2023-11-19T10:41:39;7.07;;;5.27;;
8399;SDS011;4237;47.030;15.396;2023-11-19T10:44:09;5.23;;;4.73;;
8399;SDS011;4237;47.030;15.396;2023-11-19T10:46:40;5.17;;;4.40;;
8399;SDS011;4237;47.030;15.396;2023-11-19T10:49:11;6.83;;;5.10;;
8399;SDS011;4237;47.030;15.396;2023-11-19T10:51:45;5.13;;;4.37;;
8399;SDS011;4237;47.030;15.396;2023-11-19T10:54:13;5.10;;;4.47;;
8399;SDS011;4237;47.030;15.396;2023-11-19T10:56:44;5.67;;;5.17;;
8399;SDS011;4237;47.030;15.396;2023-11-19T10:59:16;5.77;;;4.77;;
8399;SDS011;4237;47.030;15.396;2023-11-19T11:01:49;5.80;;;5.10;;
8399;SDS011;4237;47.030;15.396;2023-11-19T11:04:25;5.57;;;4.93;;
8399;SDS011;4237;47.030;15.396;2023-11-19T11:06:55;5.30;;;4.80;;
8399;SDS011;4237;47.030;15.396;2023-11-19T11:09:26;5.40;;;4.90;;
8399;SDS011;4237;47.030;15.396;2023-11-19T11:11:55;5.73;;;5.17;;
8399;SDS011;4237;47.030;15.396;2023-11-19T11:14:26;5.70;;;5.10;;
8399;SDS011;4237;47.030;15.396;2023-11-19T11:16:55;5.23;;;4.73;;
8399;SDS011;4237;47.030;15.396;2023-11-19T11:19:25;5.67;;;5.17;;
8399;SDS011;4237;47.030;15.396;2023-11-19T11:21:54;5.33;;;4.83;;
8399;SDS011;4237;47.030;15.396;2023-11-19T11:32:54;5.43;;;4.63;;
8399;SDS011;4237;47.030;15.396;2023-11-19T11:38:11;5.73;;;4.83;;
8399;SDS011;4237;47.030;15.396;2023-11-19T11:40:42;4.90;;;4.47;;
8399;SDS011;4237;47.030;15.396;2023-11-19T11:46:08;5.07;;;4.57;;
8399;SDS011;4237;47.030;15.396;2023-11-19T11:48:40;6.33;;;5.10;;
8399;SDS011;4237;47.030;15.396;2023-11-19T11:51:10;5.43;;;4.33;;
8399;SDS011;4237;47.030;15.396;2023-11-19T11:53:39;5.60;;;5.10;;
8399;SDS011;4237;47.030;15.396;2023-11-19T11:56:09;6.37;;;4.90;;
8399;SDS011;4237;47.030;15.396;2023-11-19T11:58:38;5.47;;;4.67;;
8399;SDS011;4237;47.030;15.396;2023-11-19T12:01:10;4.40;;;4.00;;
8399;SDS011;4237;47.030;15.396;2023-11-19T12:03:40;5.00;;;4.50;;
8399;SDS011;4237;47.030;15.396;2023-11-19T12:06:09;4.67;;;4.27;;
8399;SDS011;4237;47.030;15.396;2023-11-19T12:08:39;5.20;;;4.20;;
8399;SDS011;4237;47.030;15.396;2023-11-19T12:11:09;4.60;;;4.20;;
8399;SDS011;4237;47.030;15.396;2023-11-19T12:13:55;4.90;;;4.50;;
8399;SDS011;4237;47.030;15.396;2023-11-19T12:16:25;5.00;;;4.50;;
8399;SDS011;4237;47.030;15.396;2023-11-19T12:18:56;4.60;;;4.20;;
8399;SDS011;4237;47.030;15.396;2023-11-19T12:21:29;4.93;;;4.37;;
8399;SDS011;4237;47.030;15.396;2023-11-19T12:23:59;4.33;;;3.93;;
8399;SDS011;4237;47.030;15.396;2023-11-19T12:26:34;7.30;;;5.53;;
8399;SDS011;4237;47.030;15.396;2023-11-19T12:31:53;6.57;;;5.13;;
8399;SDS011;4237;47.030;15.396;2023-11-19T12:34:17;5.20;;;4.70;;
8399;SDS011;4237;47.030;15.396;2023-11-19T12:36:46;5.33;;;4.83;;
8399;SDS011;4237;47.030;15.396;2023-11-19T12:39:15;4.50;;;4.10;;
8399;SDS011;4237;47.030;15.396;2023-11-19T12:41:50;4.40;;;4.00;;
8399;SDS011;4237;47.030;15.396;2023-11-19T12:44:20;4.53;;;4.10;;
8399;SDS011;4237;47.030;15.396;2023-11-19T12:47:06;4.67;;;4.00;;
8399;SDS011;4237;47.030;15.396;2023-11-19T12:49:33;4.93;;;4.00;;
8399;SDS011;4237;47.030;15.396;2023-11-19T12:52:02;4.93;;;4.53;;
8399;SDS011;4237;47.030;15.396;2023-11-19T12:54:38;4.30;;;3.90;;
8399;SDS011;4237;47.030;15.396;2023-11-19T12:57:03;4.77;;;3.80;;
8399;SDS011;4237;47.030;15.396;2023-11-19T12:59:32;4.63;;;4.23;;
8399;SDS011;4237;47.030;15.396;2023-11-19T13:02:01;4.47;;;4.03;;
8399;SDS011;4237;47.030;15.396;2023-11-19T13:04:32;4.70;;;4.30;;
8399;SDS011;4237;47.030;15.396;2023-11-19T13:07:01;4.30;;;3.90;;
8399;SDS011;4237;47.030;15.396;2023-11-19T13:09:31;5.63;;;4.80;;
8399;SDS011;4237;47.030;15.396;2023-11-19T13:12:11;4.97;;;4.30;;
8399;SDS011;4237;47.030;15.396;2023-11-19T13:14:38;5.40;;;4.53;;
8399;SDS011;4237;47.030;15.396;2023-11-19T13:17:08;5.30;;;4.80;;
8399;SDS011;4237;47.030;15.396;2023-11-19T13:19:38;4.70;;;4.30;;
8399;SDS011;4237;47.030;15.396;2023-11-19T13:22:07;6.30;;;5.00;;
8399;SDS011;4237;47.030;15.396;2023-11-19T13:24:35;7.53;;;4.77;;
8399;SDS011;4237;47.030;15.396;2023-11-19T13:27:04;5.47;;;4.23;;
8399;SDS011;4237;47.030;15.396;2023-11-19T13:29:33;5.37;;;4.87;;
8399;SDS011;4237;47.030;15.396;2023-11-19T13:32:02;5.90;;;5.30;;
8399;SDS011;4237;47.030;15.396;2023-11-19T13:34:31;5.10;;;4.60;;
8399;SDS011;4237;47.030;15.396;2023-11-19T13:37:00;4.70;;;4.30;;
8399;SDS011;4237;47.030;15.396;2023-11-19T13:39:28;6.57;;;4.67;;
8399;SDS011;4237;47.030;15.396;2023-11-19T13:41:57;7.53;;;6.30;;
8399;SDS011;4237;47.030;15.396;2023-11-19T13:44:26;4.10;;;3.70;;
8399;SDS011;4237;47.030;15.396;2023-11-19T13:46:55;4.80;;;4.30;;
8399;SDS011;4237;47.030;15.396;2023-11-19T13:49:23;5.93;;;4.20;;
8399;SDS011;4237;47.030;15.396;2023-11-19T13:51:52;4.70;;;4.20;;
8399;SDS011;4237;47.030;15.396;2023-11-19T13:54:21;4.57;;;4.07;;
8399;SDS011;4237;47.030;15.396;2023-11-19T13:56:50;5.00;;;4.50;;
8399;SDS011;4237;47.030;15.396;2023-11-19T13:59:21;5.97;;;5.47;;
8399;SDS011;4237;47.030;15.396;2023-11-19T14:01:49;6.57;;;5.47;;
8399;SDS011;4237;47.030;15.396;2023-11-19T14:04:18;6.47;;;4.67;;
8399;SDS011;4237;47.030;15.396;2023-11-19T14:06:46;7.27;;;4.50;;
8399;SDS011;4237;47.030;15.396;2023-11-19T14:09:16;4.63;;;4.23;;
8399;SDS011;4237;47.030;15.396;2023-11-19T14:11:46;5.40;;;4.40;;
8399;SDS011;4237;47.030;15.396;2023-11-19T14:14:15;4.27;;;3.87;;
8399;SDS011;4237;47.030;15.396;2023-11-19T14:16:44;4.13;;;3.73;;
8399;SDS011;4237;47.030;15.396;2023-11-19T14:19:12;5.23;;;4.10;;
8399;SDS011;4237;47.030;15.396;2023-11-19T14:21:41;6.33;;;5.10;;
8399;SDS011;4237;47.030;15.396;2023-11-19T14:24:11;6.93;;;5.20;;
8399;SDS011;4237;47.030;15.396;2023-11-19T14:26:40;5.23;;;4.73;;
8399;SDS011;4237;47.030;15.396;2023-11-19T14:29:09;7.77;;;6.00;;
8399;SDS011;4237;47.030;15.396;2023-11-19T14:31:37;6.70;;;6.10;;
8399;SDS011;4237;47.030;15.396;2023-11-19T14:34:07;8.10;;;6.50;;
8399;SDS011;4237;47.030;15.396;2023-11-19T14:36:35;9.93;;;7.87;;
8399;SDS011;4237;47.030;15.396;2023-11-19T14:39:04;12.00;;;8.90;;
8399;SDS011;4237;47.030;15.396;2023-11-19T14:41:34;11.63;;;9.40;;
8399;SDS011;4237;47.030;15.396;2023-11-19T14:44:02;12.10;;;9.20;;
8399;SDS011;4237;47.030;15.396;2023-11-19T14:46:31;7.70;;;6.73;;
8399;SDS011;4237;47.030;15.396;2023-11-19T14:49:00;8.83;;;7.23;;
8399;SDS011;4237;47.030;15.396;2023-11-19T14:51:28;8.60;;;6.77;;
8399;SDS011;4237;47.030;15.396;2023-11-19T14:53:57;6.63;;;5.80;;
8399;SDS011;4237;47.030;15.396;2023-11-19T14:56:26;6.50;;;5.53;;
8399;SDS011;4237;47.030;15.396;2023-11-19T14:58:55;6.10;;;4.93;;
8399;SDS011;4237;47.030;15.396;2023-11-19T15:01:24;6.40;;;5.70;;
8399;SDS011;4237;47.030;15.396;2023-11-19T15:03:52;8.80;;;6.43;;
8399;SDS011;4237;47.030;15.396;2023-11-19T15:06:26;5.97;;;4.97;;
8399;SDS011;4237;47.030;15.396;2023-11-19T15:08:53;9.43;;;7.33;;
8399;SDS011;4237;47.030;15.396;2023-11-19T15:11:22;10.27;;;9.23;;
8399;SDS011;4237;47.030;15.396;2023-11-19T15:13:51;9.10;;;8.20;;
8399;SDS011;4237;47.030;15.396;2023-11-19T15:16:20;8.60;;;7.13;;
8399;SDS011;4237;47.030;15.396;2023-11-19T15:18:51;9.83;;;6.80;;
8399;SDS011;4237;47.030;15.396;2023-11-19T15:21:20;6.00;;;5.40;;
8399;SDS011;4237;47.030;15.396;2023-11-19T15:23:49;7.33;;;5.50;;
8399;SDS011;4237;47.030;15.396;2023-11-19T15:26:19;6.60;;;5.53;;
8399;SDS011;4237;47.030;15.396;2023-11-19T15:28:47;8.40;;;6.70;;
8399;SDS011;4237;47.030;15.396;2023-11-19T15:31:16;9.77;;;7.77;;